sensor_id;sensor_type;location;lat;lon;timestamp;temperature;humidity
59961;DHT22;55902;-37.980;-63.602;2023-02-12T00:02:19;32.30;58.50
59961;DHT22;55902;-37.980;-63.602;2023-02-12T00:04:48;32.20;58.30
59961;DHT22;55902;-37.980;-63.602;2023-02-12T00:07:14;32.20;58.60
59961;DHT22;55902;-37.980;-63.602;2023-02-12T00:09:44;32.20;58.50
59961;DHT22;55902;-37.980;-63.602;2023-02-12T00:12:11;32.10;58.80
59961;DHT22;55902;-37.980;-63.602;2023-02-12T00:14:38;32.10;58.70
59961;DHT22;55902;-37.980;-63.602;2023-02-12T00:17:05;32.00;59.10
59961;DHT22;55902;-37.980;-63.602;2023-02-12T00:19:32;32.00;59.00
59961;DHT22;55902;-37.980;-63.602;2023-02-12T00:21:59;32.00;59.10
59961;DHT22;55902;-37.980;-63.602;2023-02-12T00:24:29;31.90;59.30
59961;DHT22;55902;-37.980;-63.602;2023-02-12T00:26:56;31.90;59.00
59961;DHT22;55902;-37.980;-63.602;2023-02-12T00:29:33;31.90;59.40
59961;DHT22;55902;-37.980;-63.602;2023-02-12T00:32:00;31.90;59.30
59961;DHT22;55902;-37.980;-63.602;2023-02-12T00:34:27;31.80;59.50
59961;DHT22;55902;-37.980;-63.602;2023-02-12T00:36:54;31.80;59.90
59961;DHT22;55902;-37.980;-63.602;2023-02-12T00:39:20;31.80;59.80
59961;DHT22;55902;-37.980;-63.602;2023-02-12T00:41:47;31.70;59.80
59961;DHT22;55902;-37.980;-63.602;2023-02-12T00:44:18;31.70;60.10
59961;DHT22;55902;-37.980;-63.602;2023-02-12T00:46:44;31.60;60.50
59961;DHT22;55902;-37.980;-63.602;2023-02-12T00:49:11;31.60;60.00
59961;DHT22;55902;-37.980;-63.602;2023-02-12T00:51:39;31.50;60.90
59961;DHT22;55902;-37.980;-63.602;2023-02-12T00:54:09;31.40;61.40
59961;DHT22;55902;-37.980;-63.602;2023-02-12T00:56:36;31.40;61.30
59961;DHT22;55902;-37.980;-63.602;2023-02-12T00:59:03;31.30;61.90
59961;DHT22;55902;-37.980;-63.602;2023-02-12T01:01:32;31.30;62.10
59961;DHT22;55902;-37.980;-63.602;2023-02-12T01:03:59;31.30;62.30
59961;DHT22;55902;-37.980;-63.602;2023-02-12T01:06:26;31.20;62.20
59961;DHT22;55902;-37.980;-63.602;2023-02-12T01:12:15;31.10;63.40
59961;DHT22;55902;-37.980;-63.602;2023-02-12T01:14:44;31.10;62.90
59961;DHT22;55902;-37.980;-63.602;2023-02-12T01:17:12;31.00;63.60
59961;DHT22;55902;-37.980;-63.602;2023-02-12T01:19:39;31.00;63.60
59961;DHT22;55902;-37.980;-63.602;2023-02-12T01:22:06;31.00;63.40
59961;DHT22;55902;-37.980;-63.602;2023-02-12T01:24:33;31.00;64.30
59961;DHT22;55902;-37.980;-63.602;2023-02-12T01:26:59;30.90;64.60
59961;DHT22;55902;-37.980;-63.602;2023-02-12T01:29:26;30.90;64.30
59961;DHT22;55902;-37.980;-63.602;2023-02-12T01:31:53;30.80;65.00
59961;DHT22;55902;-37.980;-63.602;2023-02-12T01:34:22;30.80;64.10
59961;DHT22;55902;-37.980;-63.602;2023-02-12T01:36:54;30.80;64.40
59961;DHT22;55902;-37.980;-63.602;2023-02-12T01:39:24;30.80;64.20
59961;DHT22;55902;-37.980;-63.602;2023-02-12T01:41:51;30.70;65.80
59961;DHT22;55902;-37.980;-63.602;2023-02-12T01:44:31;30.60;66.00
59961;DHT22;55902;-37.980;-63.602;2023-02-12T01:47:17;30.60;66.00
59961;DHT22;55902;-37.980;-63.602;2023-02-12T01:50:06;30.50;66.30
59961;DHT22;55902;-37.980;-63.602;2023-02-12T01:52:43;30.40;66.70
59961;DHT22;55902;-37.980;-63.602;2023-02-12T01:55:33;30.30;67.40
59961;DHT22;55902;-37.980;-63.602;2023-02-12T01:58:24;30.30;67.90
59961;DHT22;55902;-37.980;-63.602;2023-02-12T02:00:53;30.20;66.40
59961;DHT22;55902;-37.980;-63.602;2023-02-12T02:03:22;30.20;66.40
59961;DHT22;55902;-37.980;-63.602;2023-02-12T02:06:21;30.20;65.90
59961;DHT22;55902;-37.980;-63.602;2023-02-12T02:09:05;30.10;67.50
59961;DHT22;55902;-37.980;-63.602;2023-02-12T02:11:37;30.10;68.20
59961;DHT22;55902;-37.980;-63.602;2023-02-12T02:14:22;29.90;68.70
59961;DHT22;55902;-37.980;-63.602;2023-02-12T02:17:22;29.90;69.50
59961;DHT22;55902;-37.980;-63.602;2023-02-12T02:29:09;29.40;71.40
59961;DHT22;55902;-37.980;-63.602;2023-02-12T02:34:50;29.30;69.70
59961;DHT22;55902;-37.980;-63.602;2023-02-12T02:37:35;29.20;72.80
59961;DHT22;55902;-37.980;-63.602;2023-02-12T02:40:41;29.00;74.00
59961;DHT22;55902;-37.980;-63.602;2023-02-12T02:43:20;28.90;73.40
59961;DHT22;55902;-37.980;-63.602;2023-02-12T02:45:56;28.80;73.70
59961;DHT22;55902;-37.980;-63.602;2023-02-12T02:48:37;28.80;74.60
59961;DHT22;55902;-37.980;-63.602;2023-02-12T02:51:15;28.60;73.00
59961;DHT22;55902;-37.980;-63.602;2023-02-12T02:56:33;28.50;73.80
59961;DHT22;55902;-37.980;-63.602;2023-02-12T02:59:15;28.40;72.80
59961;DHT22;55902;-37.980;-63.602;2023-02-12T03:01:55;28.40;76.00
59961;DHT22;55902;-37.980;-63.602;2023-02-12T03:04:34;28.30;73.80
59961;DHT22;55902;-37.980;-63.602;2023-02-12T03:07:26;28.30;75.80
59961;DHT22;55902;-37.980;-63.602;2023-02-12T03:10:10;28.20;76.90
59961;DHT22;55902;-37.980;-63.602;2023-02-12T03:12:47;28.20;76.40
59961;DHT22;55902;-37.980;-63.602;2023-02-12T03:15:45;28.10;76.10
59961;DHT22;55902;-37.980;-63.602;2023-02-12T03:18:20;28.10;76.20
59961;DHT22;55902;-37.980;-63.602;2023-02-12T03:20:58;28.10;76.80
59961;DHT22;55902;-37.980;-63.602;2023-02-12T03:23:36;28.00;76.40
59961;DHT22;55902;-37.980;-63.602;2023-02-12T03:26:14;28.00;77.70
59961;DHT22;55902;-37.980;-63.602;2023-02-12T03:28:46;28.00;76.90
59961;DHT22;55902;-37.980;-63.602;2023-02-12T03:31:36;27.90;78.90
59961;DHT22;55902;-37.980;-63.602;2023-02-12T03:34:16;27.90;78.50
59961;DHT22;55902;-37.980;-63.602;2023-02-12T03:37:07;27.90;78.20
59961;DHT22;55902;-37.980;-63.602;2023-02-12T03:42:23;27.80;78.60
59961;DHT22;55902;-37.980;-63.602;2023-02-12T03:45:01;27.80;78.00
59961;DHT22;55902;-37.980;-63.602;2023-02-12T03:53:09;27.80;79.00
59961;DHT22;55902;-37.980;-63.602;2023-02-12T03:55:46;27.70;77.70
59961;DHT22;55902;-37.980;-63.602;2023-02-12T03:58:18;27.70;77.90
59961;DHT22;55902;-37.980;-63.602;2023-02-12T04:00:50;27.60;77.60
59961;DHT22;55902;-37.980;-63.602;2023-02-12T04:03:21;27.60;78.60
59961;DHT22;55902;-37.980;-63.602;2023-02-12T04:05:48;27.60;78.30
59961;DHT22;55902;-37.980;-63.602;2023-02-12T04:08:21;27.60;77.10
59961;DHT22;55902;-37.980;-63.602;2023-02-12T04:11:16;27.60;78.40
59961;DHT22;55902;-37.980;-63.602;2023-02-12T04:20:08;27.40;78.10
59961;DHT22;55902;-37.980;-63.602;2023-02-12T04:22:59;27.40;79.00
59961;DHT22;55902;-37.980;-63.602;2023-02-12T04:28:42;27.30;80.60
59961;DHT22;55902;-37.980;-63.602;2023-02-12T04:31:35;27.20;79.50
59961;DHT22;55902;-37.980;-63.602;2023-02-12T04:36:56;27.10;79.60
59961;DHT22;55902;-37.980;-63.602;2023-02-12T04:39:30;27.10;79.50
59961;DHT22;55902;-37.980;-63.602;2023-02-12T04:42:05;27.10;80.20
59961;DHT22;55902;-37.980;-63.602;2023-02-12T04:44:36;27.00;80.00
59961;DHT22;55902;-37.980;-63.602;2023-02-12T04:47:06;27.00;81.50
59961;DHT22;55902;-37.980;-63.602;2023-02-12T04:49:33;27.00;80.60
59961;DHT22;55902;-37.980;-63.602;2023-02-12T04:52:01;26.90;80.90
59961;DHT22;55902;-37.980;-63.602;2023-02-12T04:54:28;26.90;81.70
59961;DHT22;55902;-37.980;-63.602;2023-02-12T04:57:02;26.90;81.90
59961;DHT22;55902;-37.980;-63.602;2023-02-12T04:59:32;26.90;81.70
59961;DHT22;55902;-37.980;-63.602;2023-02-12T05:02:00;26.90;80.80
59961;DHT22;55902;-37.980;-63.602;2023-02-12T05:04:26;26.80;82.60
59961;DHT22;55902;-37.980;-63.602;2023-02-12T05:06:53;26.80;82.10
59961;DHT22;55902;-37.980;-63.602;2023-02-12T05:09:20;26.80;83.40
59961;DHT22;55902;-37.980;-63.602;2023-02-12T05:15:27;26.70;82.50
59961;DHT22;55902;-37.980;-63.602;2023-02-12T05:17:54;26.70;84.10
59961;DHT22;55902;-37.980;-63.602;2023-02-12T05:23:53;26.60;82.90
59961;DHT22;55902;-37.980;-63.602;2023-02-12T05:26:59;26.60;82.80
59961;DHT22;55902;-37.980;-63.602;2023-02-12T05:29:27;26.50;81.90
59961;DHT22;55902;-37.980;-63.602;2023-02-12T05:31:54;26.50;85.40
59961;DHT22;55902;-37.980;-63.602;2023-02-12T05:34:21;26.40;85.10
59961;DHT22;55902;-37.980;-63.602;2023-02-12T05:36:50;26.40;84.70
59961;DHT22;55902;-37.980;-63.602;2023-02-12T05:42:41;26.30;83.80
59961;DHT22;55902;-37.980;-63.602;2023-02-12T05:45:09;26.30;85.00
59961;DHT22;55902;-37.980;-63.602;2023-02-12T05:47:39;26.30;84.90
59961;DHT22;55902;-37.980;-63.602;2023-02-12T05:50:06;26.20;84.50
59961;DHT22;55902;-37.980;-63.602;2023-02-12T05:52:33;26.20;86.00
59961;DHT22;55902;-37.980;-63.602;2023-02-12T05:55:00;26.10;87.90
59961;DHT22;55902;-37.980;-63.602;2023-02-12T05:57:34;26.10;86.00
59961;DHT22;55902;-37.980;-63.602;2023-02-12T06:00:10;26.00;88.00
59961;DHT22;55902;-37.980;-63.602;2023-02-12T06:02:37;25.90;88.90
59961;DHT22;55902;-37.980;-63.602;2023-02-12T06:05:08;25.90;89.40
59961;DHT22;55902;-37.980;-63.602;2023-02-12T06:07:38;25.90;89.00
59961;DHT22;55902;-37.980;-63.602;2023-02-12T06:10:08;25.90;87.00
59961;DHT22;55902;-37.980;-63.602;2023-02-12T06:12:38;26.00;88.90
59961;DHT22;55902;-37.980;-63.602;2023-02-12T06:15:09;26.00;89.20
59961;DHT22;55902;-37.980;-63.602;2023-02-12T06:17:36;25.90;89.20
59961;DHT22;55902;-37.980;-63.602;2023-02-12T06:20:07;26.00;89.10
59961;DHT22;55902;-37.980;-63.602;2023-02-12T06:22:34;26.00;89.40
59961;DHT22;55902;-37.980;-63.602;2023-02-12T06:25:04;26.00;89.30
59961;DHT22;55902;-37.980;-63.602;2023-02-12T06:27:33;26.10;89.10
59961;DHT22;55902;-37.980;-63.602;2023-02-12T06:30:00;26.10;88.30
59961;DHT22;55902;-37.980;-63.602;2023-02-12T06:32:30;26.10;88.90
59961;DHT22;55902;-37.980;-63.602;2023-02-12T06:34:57;26.10;88.90
59961;DHT22;55902;-37.980;-63.602;2023-02-12T06:37:28;26.00;89.10
59961;DHT22;55902;-37.980;-63.602;2023-02-12T06:39:58;26.00;88.50
59961;DHT22;55902;-37.980;-63.602;2023-02-12T06:48:57;26.00;88.70
59961;DHT22;55902;-37.980;-63.602;2023-02-12T06:51:28;25.90;90.00
59961;DHT22;55902;-37.980;-63.602;2023-02-12T06:53:57;25.90;90.10
59961;DHT22;55902;-37.980;-63.602;2023-02-12T06:57:13;25.80;90.30
59961;DHT22;55902;-37.980;-63.602;2023-02-12T06:59:41;25.80;91.40
59961;DHT22;55902;-37.980;-63.602;2023-02-12T07:02:11;25.80;91.10
59961;DHT22;55902;-37.980;-63.602;2023-02-12T07:04:41;25.80;91.20
59961;DHT22;55902;-37.980;-63.602;2023-02-12T07:07:21;25.80;90.60
59961;DHT22;55902;-37.980;-63.602;2023-02-12T07:09:48;25.80;91.50
59961;DHT22;55902;-37.980;-63.602;2023-02-12T07:12:18;25.80;91.10
59961;DHT22;55902;-37.980;-63.602;2023-02-12T07:14:45;25.80;91.40
59961;DHT22;55902;-37.980;-63.602;2023-02-12T07:17:16;25.80;91.20
59961;DHT22;55902;-37.980;-63.602;2023-02-12T07:19:46;25.80;91.60
59961;DHT22;55902;-37.980;-63.602;2023-02-12T07:22:20;25.80;91.80
59961;DHT22;55902;-37.980;-63.602;2023-02-12T07:24:47;25.70;92.00
59961;DHT22;55902;-37.980;-63.602;2023-02-12T07:27:24;25.70;92.30
59961;DHT22;55902;-37.980;-63.602;2023-02-12T07:29:54;25.70;93.00
59961;DHT22;55902;-37.980;-63.602;2023-02-12T07:32:24;25.70;93.00
59961;DHT22;55902;-37.980;-63.602;2023-02-12T07:34:51;25.70;92.50
59961;DHT22;55902;-37.980;-63.602;2023-02-12T07:37:18;25.70;92.10
59961;DHT22;55902;-37.980;-63.602;2023-02-12T07:39:51;25.70;92.00
59961;DHT22;55902;-37.980;-63.602;2023-02-12T07:42:18;25.70;92.80
59961;DHT22;55902;-37.980;-63.602;2023-02-12T07:44:48;25.70;92.80
59961;DHT22;55902;-37.980;-63.602;2023-02-12T07:47:22;25.70;92.50
59961;DHT22;55902;-37.980;-63.602;2023-02-12T07:49:54;25.70;93.20
59961;DHT22;55902;-37.980;-63.602;2023-02-12T07:52:24;25.70;93.10
59961;DHT22;55902;-37.980;-63.602;2023-02-12T07:54:54;25.70;93.20
59961;DHT22;55902;-37.980;-63.602;2023-02-12T07:57:29;25.70;93.40
59961;DHT22;55902;-37.980;-63.602;2023-02-12T07:59:56;25.70;93.30
59961;DHT22;55902;-37.980;-63.602;2023-02-12T08:02:27;25.70;93.00
59961;DHT22;55902;-37.980;-63.602;2023-02-12T08:04:57;25.70;93.40
59961;DHT22;55902;-37.980;-63.602;2023-02-12T08:07:25;25.70;94.10
59961;DHT22;55902;-37.980;-63.602;2023-02-12T08:09:57;25.70;94.10
59961;DHT22;55902;-37.980;-63.602;2023-02-12T08:12:24;25.70;94.20
59961;DHT22;55902;-37.980;-63.602;2023-02-12T08:14:54;25.70;93.90
59961;DHT22;55902;-37.980;-63.602;2023-02-12T08:17:24;25.70;93.90
59961;DHT22;55902;-37.980;-63.602;2023-02-12T08:19:50;25.70;94.10
59961;DHT22;55902;-37.980;-63.602;2023-02-12T08:22:17;25.80;93.80
59961;DHT22;55902;-37.980;-63.602;2023-02-12T08:24:48;25.80;94.00
59961;DHT22;55902;-37.980;-63.602;2023-02-12T08:27:15;25.80;94.20
59961;DHT22;55902;-37.980;-63.602;2023-02-12T08:29:42;25.80;94.50
59961;DHT22;55902;-37.980;-63.602;2023-02-12T08:32:15;25.70;94.70
59961;DHT22;55902;-37.980;-63.602;2023-02-12T08:34:45;25.70;95.00
59961;DHT22;55902;-37.980;-63.602;2023-02-12T08:37:15;25.70;95.00
59961;DHT22;55902;-37.980;-63.602;2023-02-12T08:39:47;25.70;95.10
59961;DHT22;55902;-37.980;-63.602;2023-02-12T08:42:14;25.70;95.20
59961;DHT22;55902;-37.980;-63.602;2023-02-12T08:44:42;25.70;95.50
59961;DHT22;55902;-37.980;-63.602;2023-02-12T08:47:08;25.70;95.10
59961;DHT22;55902;-37.980;-63.602;2023-02-12T08:49:35;25.70;95.20
59961;DHT22;55902;-37.980;-63.602;2023-02-12T08:52:09;25.70;95.20
59961;DHT22;55902;-37.980;-63.602;2023-02-12T08:54:36;25.70;94.80
59961;DHT22;55902;-37.980;-63.602;2023-02-12T08:57:07;25.80;94.80
59961;DHT22;55902;-37.980;-63.602;2023-02-12T08:59:34;25.80;94.60
59961;DHT22;55902;-37.980;-63.602;2023-02-12T09:02:01;25.90;94.70
59961;DHT22;55902;-37.980;-63.602;2023-02-12T09:04:36;25.90;94.10
59961;DHT22;55902;-37.980;-63.602;2023-02-12T09:07:03;26.00;93.70
59961;DHT22;55902;-37.980;-63.602;2023-02-12T09:19:36;26.10;93.50
59961;DHT22;55902;-37.980;-63.602;2023-02-12T09:22:03;26.10;93.40
59961;DHT22;55902;-37.980;-63.602;2023-02-12T09:24:30;26.10;93.00
59961;DHT22;55902;-37.980;-63.602;2023-02-12T09:27:03;26.20;92.90
59961;DHT22;55902;-37.980;-63.602;2023-02-12T09:29:33;26.20;92.70
59961;DHT22;55902;-37.980;-63.602;2023-02-12T09:32:09;26.30;92.60
59961;DHT22;55902;-37.980;-63.602;2023-02-12T09:34:36;26.30;92.60
59961;DHT22;55902;-37.980;-63.602;2023-02-12T09:37:06;26.20;92.40
59961;DHT22;55902;-37.980;-63.602;2023-02-12T09:39:33;26.30;92.50
59961;DHT22;55902;-37.980;-63.602;2023-02-12T09:47:30;26.20;91.90
59961;DHT22;55902;-37.980;-63.602;2023-02-12T09:50:36;26.20;91.90
59961;DHT22;55902;-37.980;-63.602;2023-02-12T09:53:14;26.10;91.70
59961;DHT22;55902;-37.980;-63.602;2023-02-12T09:55:42;26.10;91.60
59961;DHT22;55902;-37.980;-63.602;2023-02-12T10:00:56;25.80;91.40
59961;DHT22;55902;-37.980;-63.602;2023-02-12T10:03:23;25.70;91.40
59961;DHT22;55902;-37.980;-63.602;2023-02-12T10:06:02;25.70;91.20
59961;DHT22;55902;-37.980;-63.602;2023-02-12T10:11:35;25.60;91.20
59961;DHT22;55902;-37.980;-63.602;2023-02-12T10:14:15;25.50;91.00
59961;DHT22;55902;-37.980;-63.602;2023-02-12T10:17:01;25.40;91.20
59961;DHT22;55902;-37.980;-63.602;2023-02-12T10:28:04;25.20;91.10
59961;DHT22;55902;-37.980;-63.602;2023-02-12T10:30:45;25.20;91.40
59961;DHT22;55902;-37.980;-63.602;2023-02-12T10:38:37;25.20;91.10
59961;DHT22;55902;-37.980;-63.602;2023-02-12T10:41:05;25.20;91.00
59961;DHT22;55902;-37.980;-63.602;2023-02-12T10:43:36;25.20;90.80
59961;DHT22;55902;-37.980;-63.602;2023-02-12T10:46:03;25.20;90.70
59961;DHT22;55902;-37.980;-63.602;2023-02-12T10:48:37;25.20;90.50
59961;DHT22;55902;-37.980;-63.602;2023-02-12T10:54:39;25.30;89.40
59961;DHT22;55902;-37.980;-63.602;2023-02-12T10:57:13;25.40;89.20
59961;DHT22;55902;-37.980;-63.602;2023-02-12T10:59:47;25.40;88.80
59961;DHT22;55902;-37.980;-63.602;2023-02-12T11:02:29;25.50;87.60
59961;DHT22;55902;-37.980;-63.602;2023-02-12T11:05:01;25.50;87.50
59961;DHT22;55902;-37.980;-63.602;2023-02-12T11:07:49;25.60;86.90
59961;DHT22;55902;-37.980;-63.602;2023-02-12T11:10:40;25.70;84.50
59961;DHT22;55902;-37.980;-63.602;2023-02-12T11:13:27;25.80;80.60
59961;DHT22;55902;-37.980;-63.602;2023-02-12T11:16:00;25.90;80.10
59961;DHT22;55902;-37.980;-63.602;2023-02-12T11:18:31;26.00;77.90
59961;DHT22;55902;-37.980;-63.602;2023-02-12T11:24:30;26.20;76.20
59961;DHT22;55902;-37.980;-63.602;2023-02-12T11:27:22;26.20;76.30
59961;DHT22;55902;-37.980;-63.602;2023-02-12T11:32:36;26.40;69.60
59961;DHT22;55902;-37.980;-63.602;2023-02-12T11:35:23;26.40;72.20
59961;DHT22;55902;-37.980;-63.602;2023-02-12T11:37:56;26.50;69.70
59961;DHT22;55902;-37.980;-63.602;2023-02-12T11:40:31;26.60;69.10
59961;DHT22;55902;-37.980;-63.602;2023-02-12T11:43:12;26.70;66.80
59961;DHT22;55902;-37.980;-63.602;2023-02-12T11:45:46;26.90;67.70
59961;DHT22;55902;-37.980;-63.602;2023-02-12T11:51:00;27.50;61.40
59961;DHT22;55902;-37.980;-63.602;2023-02-12T11:53:41;27.90;61.30
59961;DHT22;55902;-37.980;-63.602;2023-02-12T11:56:11;28.30;58.30
59961;DHT22;55902;-37.980;-63.602;2023-02-12T11:58:42;28.60;60.70
59961;DHT22;55902;-37.980;-63.602;2023-02-12T12:09:04;29.30;55.80
59961;DHT22;55902;-37.980;-63.602;2023-02-12T12:11:50;29.50;59.00
59961;DHT22;55902;-37.980;-63.602;2023-02-12T12:14:49;29.80;58.60
59961;DHT22;55902;-37.980;-63.602;2023-02-12T12:20:31;29.90;59.00
59961;DHT22;55902;-37.980;-63.602;2023-02-12T12:23:20;30.30;61.30
59961;DHT22;55902;-37.980;-63.602;2023-02-12T12:25:55;30.70;57.50
59961;DHT22;55902;-37.980;-63.602;2023-02-12T12:39:11;32.30;54.70
59961;DHT22;55902;-37.980;-63.602;2023-02-12T12:42:07;32.60;53.80
59961;DHT22;55902;-37.980;-63.602;2023-02-12T12:58:57;32.60;48.00
59961;DHT22;55902;-37.980;-63.602;2023-02-12T13:01:53;32.70;51.00
59961;DHT22;55902;-37.980;-63.602;2023-02-12T13:17:52;33.20;48.40
59961;DHT22;55902;-37.980;-63.602;2023-02-12T13:26:23;33.70;44.50
59961;DHT22;55902;-37.980;-63.602;2023-02-12T13:29:15;34.20;43.40
59961;DHT22;55902;-37.980;-63.602;2023-02-12T13:32:06;34.50;43.40
59961;DHT22;55902;-37.980;-63.602;2023-02-12T13:34:40;34.70;43.70
59961;DHT22;55902;-37.980;-63.602;2023-02-12T13:39:58;35.20;41.90
59961;DHT22;55902;-37.980;-63.602;2023-02-12T13:43:02;35.60;43.50
59961;DHT22;55902;-37.980;-63.602;2023-02-12T13:46:03;36.20;45.20
59961;DHT22;55902;-37.980;-63.602;2023-02-12T13:48:42;36.20;42.90
59961;DHT22;55902;-37.980;-63.602;2023-02-12T13:57:11;35.20;39.60
59961;DHT22;55902;-37.980;-63.602;2023-02-12T13:59:45;35.60;42.90
59961;DHT22;55902;-37.980;-63.602;2023-02-12T14:02:39;35.90;40.50
59961;DHT22;55902;-37.980;-63.602;2023-02-12T14:12:14;36.20;38.70
59961;DHT22;55902;-37.980;-63.602;2023-02-12T14:14:50;36.70;37.50
59961;DHT22;55902;-37.980;-63.602;2023-02-12T14:23:43;37.30;40.80
59961;DHT22;55902;-37.980;-63.602;2023-02-12T14:26:20;37.30;36.60
59961;DHT22;55902;-37.980;-63.602;2023-02-12T14:29:01;37.50;38.50
59961;DHT22;55902;-37.980;-63.602;2023-02-12T14:31:35;37.70;39.00
59961;DHT22;55902;-37.980;-63.602;2023-02-12T14:36:41;38.00;38.80
59961;DHT22;55902;-37.980;-63.602;2023-02-12T14:41:54;38.80;36.40
59961;DHT22;55902;-37.980;-63.602;2023-02-12T15:09:07;41.00;37.50
59961;DHT22;55902;-37.980;-63.602;2023-02-12T15:15:30;41.00;31.20
59961;DHT22;55902;-37.980;-63.602;2023-02-12T15:25:09;41.30;33.30
59961;DHT22;55902;-37.980;-63.602;2023-02-12T15:27:47;40.70;33.80
59961;DHT22;55902;-37.980;-63.602;2023-02-12T15:30:23;40.40;32.90
59961;DHT22;55902;-37.980;-63.602;2023-02-12T15:33:00;40.50;34.60
59961;DHT22;55902;-37.980;-63.602;2023-02-12T15:35:31;40.70;32.70
59961;DHT22;55902;-37.980;-63.602;2023-02-12T15:38:24;40.90;35.20
59961;DHT22;55902;-37.980;-63.602;2023-02-12T15:40:59;41.10;35.20
59961;DHT22;55902;-37.980;-63.602;2023-02-12T15:43:31;41.10;35.10
59961;DHT22;55902;-37.980;-63.602;2023-02-12T15:46:04;41.30;32.00
59961;DHT22;55902;-37.980;-63.602;2023-02-12T15:48:41;41.30;33.60
59961;DHT22;55902;-37.980;-63.602;2023-02-12T15:53:41;40.90;34.00
59961;DHT22;55902;-37.980;-63.602;2023-02-12T15:56:16;41.00;33.70
59961;DHT22;55902;-37.980;-63.602;2023-02-12T15:58:54;41.30;32.40
59961;DHT22;55902;-37.980;-63.602;2023-02-12T16:01:33;41.60;33.30
59961;DHT22;55902;-37.980;-63.602;2023-02-12T16:04:07;41.90;34.50
59961;DHT22;55902;-37.980;-63.602;2023-02-12T16:06:38;42.40;32.50
59961;DHT22;55902;-37.980;-63.602;2023-02-12T16:09:17;42.60;33.80
59961;DHT22;55902;-37.980;-63.602;2023-02-12T16:11:47;42.90;32.20
59961;DHT22;55902;-37.980;-63.602;2023-02-12T16:14:45;43.10;31.70
59961;DHT22;55902;-37.980;-63.602;2023-02-12T16:19:59;43.00;31.40
59961;DHT22;55902;-37.980;-63.602;2023-02-12T16:22:49;43.10;32.30
59961;DHT22;55902;-37.980;-63.602;2023-02-12T16:25:27;43.40;30.40
59961;DHT22;55902;-37.980;-63.602;2023-02-12T16:30:32;43.20;30.00
59961;DHT22;55902;-37.980;-63.602;2023-02-12T16:33:30;43.40;30.30
59961;DHT22;55902;-37.980;-63.602;2023-02-12T16:36:01;43.20;30.70
59961;DHT22;55902;-37.980;-63.602;2023-02-12T16:38:47;43.30;28.60
59961;DHT22;55902;-37.980;-63.602;2023-02-12T16:41:25;43.30;29.10
59961;DHT22;55902;-37.980;-63.602;2023-02-12T16:46:48;43.40;30.50
59961;DHT22;55902;-37.980;-63.602;2023-02-12T16:49:21;43.90;29.80
59961;DHT22;55902;-37.980;-63.602;2023-02-12T16:51:51;44.30;29.70
59961;DHT22;55902;-37.980;-63.602;2023-02-12T16:54:31;44.50;29.60
59961;DHT22;55902;-37.980;-63.602;2023-02-12T16:57:02;44.60;29.20
59961;DHT22;55902;-37.980;-63.602;2023-02-12T16:59:30;44.40;28.90
59961;DHT22;55902;-37.980;-63.602;2023-02-12T17:02:10;44.10;30.50
59961;DHT22;55902;-37.980;-63.602;2023-02-12T17:04:41;44.10;28.60
59961;DHT22;55902;-37.980;-63.602;2023-02-12T17:07:21;43.90;28.20
59961;DHT22;55902;-37.980;-63.602;2023-02-12T17:09:51;43.90;29.00
59961;DHT22;55902;-37.980;-63.602;2023-02-12T17:12:20;44.00;28.80
59961;DHT22;55902;-37.980;-63.602;2023-02-12T17:14:48;44.20;28.80
59961;DHT22;55902;-37.980;-63.602;2023-02-12T17:17:21;44.10;29.50
59961;DHT22;55902;-37.980;-63.602;2023-02-12T17:19:56;44.00;29.80
59961;DHT22;55902;-37.980;-63.602;2023-02-12T17:22:25;43.60;28.70
59961;DHT22;55902;-37.980;-63.602;2023-02-12T17:24:53;43.20;29.70
59961;DHT22;55902;-37.980;-63.602;2023-02-12T17:27:22;42.80;29.40
59961;DHT22;55902;-37.980;-63.602;2023-02-12T17:29:49;42.60;30.30
59961;DHT22;55902;-37.980;-63.602;2023-02-12T17:32:17;42.80;30.30
59961;DHT22;55902;-37.980;-63.602;2023-02-12T17:34:50;43.40;29.50
59961;DHT22;55902;-37.980;-63.602;2023-02-12T17:37:44;43.80;28.50
59961;DHT22;55902;-37.980;-63.602;2023-02-12T17:40:16;44.20;28.30
59961;DHT22;55902;-37.980;-63.602;2023-02-12T17:46:18;44.90;27.30
59961;DHT22;55902;-37.980;-63.602;2023-02-12T17:48:48;45.10;26.90
59961;DHT22;55902;-37.980;-63.602;2023-02-12T17:51:16;45.10;27.70
59961;DHT22;55902;-37.980;-63.602;2023-02-12T17:53:48;44.70;26.90
59961;DHT22;55902;-37.980;-63.602;2023-02-12T17:56:20;43.90;27.70
59961;DHT22;55902;-37.980;-63.602;2023-02-12T17:58:54;43.00;27.90
59961;DHT22;55902;-37.980;-63.602;2023-02-12T18:01:27;42.20;28.20
59961;DHT22;55902;-37.980;-63.602;2023-02-12T18:03:57;41.70;26.10
59961;DHT22;55902;-37.980;-63.602;2023-02-12T18:06:30;42.20;28.00
59961;DHT22;55902;-37.980;-63.602;2023-02-12T18:08:59;43.20;27.10
59961;DHT22;55902;-37.980;-63.602;2023-02-12T18:11:32;43.50;26.50
59961;DHT22;55902;-37.980;-63.602;2023-02-12T18:14:04;43.90;26.90
59961;DHT22;55902;-37.980;-63.602;2023-02-12T18:16:34;43.80;27.10
59961;DHT22;55902;-37.980;-63.602;2023-02-12T18:19:05;43.20;26.40
59961;DHT22;55902;-37.980;-63.602;2023-02-12T18:21:35;42.10;26.80
59961;DHT22;55902;-37.980;-63.602;2023-02-12T18:24:06;41.60;27.40
59961;DHT22;55902;-37.980;-63.602;2023-02-12T18:26:35;41.70;26.90
59961;DHT22;55902;-37.980;-63.602;2023-02-12T18:29:04;42.20;26.30
59961;DHT22;55902;-37.980;-63.602;2023-02-12T18:31:37;42.70;27.40
59961;DHT22;55902;-37.980;-63.602;2023-02-12T18:34:08;43.20;27.70
59961;DHT22;55902;-37.980;-63.602;2023-02-12T18:36:39;43.30;27.00
59961;DHT22;55902;-37.980;-63.602;2023-02-12T18:39:09;43.00;27.00
59961;DHT22;55902;-37.980;-63.602;2023-02-12T18:41:39;42.50;26.60
59961;DHT22;55902;-37.980;-63.602;2023-02-12T18:44:22;42.50;27.30
59961;DHT22;55902;-37.980;-63.602;2023-02-12T18:47:01;42.30;27.60
59961;DHT22;55902;-37.980;-63.602;2023-02-12T18:49:30;42.10;28.10
59961;DHT22;55902;-37.980;-63.602;2023-02-12T18:52:02;41.60;27.90
59961;DHT22;55902;-37.980;-63.602;2023-02-12T18:54:29;41.40;28.60
59961;DHT22;55902;-37.980;-63.602;2023-02-12T18:57:00;41.30;28.40
59961;DHT22;55902;-37.980;-63.602;2023-02-12T18:59:45;41.10;28.30
59961;DHT22;55902;-37.980;-63.602;2023-02-12T19:02:14;40.80;28.40
59961;DHT22;55902;-37.980;-63.602;2023-02-12T19:04:44;40.70;28.60
59961;DHT22;55902;-37.980;-63.602;2023-02-12T19:07:15;40.80;28.80
59961;DHT22;55902;-37.980;-63.602;2023-02-12T19:09:44;40.70;28.80
59961;DHT22;55902;-37.980;-63.602;2023-02-12T19:12:14;40.70;29.10
59961;DHT22;55902;-37.980;-63.602;2023-02-12T19:14:43;40.60;28.30
59961;DHT22;55902;-37.980;-63.602;2023-02-12T19:17:16;40.40;28.60
59961;DHT22;55902;-37.980;-63.602;2023-02-12T19:19:43;40.10;28.80
59961;DHT22;55902;-37.980;-63.602;2023-02-12T19:22:13;39.80;29.00
59961;DHT22;55902;-37.980;-63.602;2023-02-12T19:24:42;39.70;28.30